sensor_id;sensor_type;location;lat;lon;timestamp;temperature;humidity
81210;DHT22;70685;52.496;13.420;2023-08-07T00:01:28;16.50;70.90
81210;DHT22;70685;52.496;13.420;2023-08-07T00:03:54;16.60;70.20
81210;DHT22;70685;52.496;13.420;2023-08-07T00:06:19;16.50;70.80
81210;DHT22;70685;52.496;13.420;2023-08-07T00:08:45;16.50;70.10
81210;DHT22;70685;52.496;13.420;2023-08-07T00:11:11;16.50;70.40
81210;DHT22;70685;52.496;13.420;2023-08-07T00:13:37;16.50;70.50
81210;DHT22;70685;52.496;13.420;2023-08-07T00:16:03;16.60;70.40
81210;DHT22;70685;52.496;13.420;2023-08-07T00:18:29;16.60;70.10
81210;DHT22;70685;52.496;13.420;2023-08-07T00:20:55;16.50;70.50
81210;DHT22;70685;52.496;13.420;2023-08-07T00:23:20;16.60;70.60
81210;DHT22;70685;52.496;13.420;2023-08-07T00:25:46;16.50;72.00
81210;DHT22;70685;52.496;13.420;2023-08-07T00:28:12;16.50;71.60
81210;DHT22;70685;52.496;13.420;2023-08-07T00:30:37;16.50;71.60
81210;DHT22;70685;52.496;13.420;2023-08-07T00:33:03;16.60;71.80
81210;DHT22;70685;52.496;13.420;2023-08-07T00:35:28;16.50;72.30
81210;DHT22;70685;52.496;13.420;2023-08-07T00:37:54;16.50;72.50
81210;DHT22;70685;52.496;13.420;2023-08-07T00:40:21;16.60;72.20
81210;DHT22;70685;52.496;13.420;2023-08-07T00:42:47;16.60;72.10
81210;DHT22;70685;52.496;13.420;2023-08-07T00:45:15;16.60;72.30
81210;DHT22;70685;52.496;13.420;2023-08-07T00:47:43;16.60;72.70
81210;DHT22;70685;52.496;13.420;2023-08-07T00:50:09;16.60;72.50
81210;DHT22;70685;52.496;13.420;2023-08-07T00:52:35;16.60;72.20
81210;DHT22;70685;52.496;13.420;2023-08-07T00:55:04;16.60;72.60
81210;DHT22;70685;52.496;13.420;2023-08-07T00:57:32;16.60;72.20
81210;DHT22;70685;52.496;13.420;2023-08-07T00:59:59;16.60;72.50
81210;DHT22;70685;52.496;13.420;2023-08-07T01:02:25;16.60;71.70
81210;DHT22;70685;52.496;13.420;2023-08-07T01:04:51;16.70;72.00
81210;DHT22;70685;52.496;13.420;2023-08-07T01:07:16;16.70;71.50
81210;DHT22;70685;52.496;13.420;2023-08-07T01:09:42;16.70;71.20
81210;DHT22;70685;52.496;13.420;2023-08-07T01:17:22;16.70;71.20
81210;DHT22;70685;52.496;13.420;2023-08-07T01:19:50;16.70;71.80
81210;DHT22;70685;52.496;13.420;2023-08-07T01:22:20;16.80;71.20
81210;DHT22;70685;52.496;13.420;2023-08-07T01:24:48;16.80;71.40
81210;DHT22;70685;52.496;13.420;2023-08-07T01:32:28;16.80;71.40
81210;DHT22;70685;52.496;13.420;2023-08-07T01:34:56;16.80;71.30
81210;DHT22;70685;52.496;13.420;2023-08-07T01:37:23;16.80;71.40
81210;DHT22;70685;52.496;13.420;2023-08-07T01:39:53;16.70;71.40
81210;DHT22;70685;52.496;13.420;2023-08-07T01:42:19;16.70;71.10
81210;DHT22;70685;52.496;13.420;2023-08-07T01:44:47;16.70;71.00
81210;DHT22;70685;52.496;13.420;2023-08-07T01:47:12;16.70;70.90
81210;DHT22;70685;52.496;13.420;2023-08-07T01:49:40;16.60;71.30
81210;DHT22;70685;52.496;13.420;2023-08-07T01:52:07;16.60;71.30
81210;DHT22;70685;52.496;13.420;2023-08-07T01:54:41;16.60;71.50
81210;DHT22;70685;52.496;13.420;2023-08-07T01:57:18;16.40;71.90
81210;DHT22;70685;52.496;13.420;2023-08-07T01:59:52;16.40;72.40
81210;DHT22;70685;52.496;13.420;2023-08-07T02:02:18;16.30;72.70
81210;DHT22;70685;52.496;13.420;2023-08-07T02:04:48;16.20;73.20
81210;DHT22;70685;52.496;13.420;2023-08-07T02:07:15;16.20;73.40
81210;DHT22;70685;52.496;13.420;2023-08-07T02:09:44;16.20;73.50
81210;DHT22;70685;52.496;13.420;2023-08-07T02:12:09;16.20;73.60
81210;DHT22;70685;52.496;13.420;2023-08-07T02:14:35;16.00;74.10
81210;DHT22;70685;52.496;13.420;2023-08-07T02:17:00;16.00;74.30
81210;DHT22;70685;52.496;13.420;2023-08-07T02:19:28;16.10;74.50
81210;DHT22;70685;52.496;13.420;2023-08-07T02:21:54;16.10;74.60
81210;DHT22;70685;52.496;13.420;2023-08-07T02:24:24;16.00;74.90
81210;DHT22;70685;52.496;13.420;2023-08-07T02:26:50;16.00;75.10
81210;DHT22;70685;52.496;13.420;2023-08-07T02:29:15;16.00;75.10
81210;DHT22;70685;52.496;13.420;2023-08-07T02:31:41;16.00;75.30
81210;DHT22;70685;52.496;13.420;2023-08-07T02:34:07;16.00;75.40
81210;DHT22;70685;52.496;13.420;2023-08-07T02:36:32;16.10;75.50
81210;DHT22;70685;52.496;13.420;2023-08-07T02:38:58;16.10;75.50
81210;DHT22;70685;52.496;13.420;2023-08-07T02:41:28;16.20;75.40
81210;DHT22;70685;52.496;13.420;2023-08-07T02:43:54;16.20;75.50
81210;DHT22;70685;52.496;13.420;2023-08-07T02:46:22;16.30;75.30
81210;DHT22;70685;52.496;13.420;2023-08-07T02:48:50;16.40;74.90
81210;DHT22;70685;52.496;13.420;2023-08-07T02:51:19;16.40;74.90
81210;DHT22;70685;52.496;13.420;2023-08-07T02:53:46;16.50;75.00
81210;DHT22;70685;52.496;13.420;2023-08-07T02:56:14;16.40;75.20
81210;DHT22;70685;52.496;13.420;2023-08-07T02:58:42;16.50;75.20
81210;DHT22;70685;52.496;13.420;2023-08-07T03:01:08;16.60;75.00
81210;DHT22;70685;52.496;13.420;2023-08-07T03:03:34;16.60;75.00
81210;DHT22;70685;52.496;13.420;2023-08-07T03:06:00;16.60;75.10
81210;DHT22;70685;52.496;13.420;2023-08-07T03:08:26;16.60;75.00
81210;DHT22;70685;52.496;13.420;2023-08-07T03:10:56;16.60;75.30
81210;DHT22;70685;52.496;13.420;2023-08-07T03:13:23;16.60;75.30
81210;DHT22;70685;52.496;13.420;2023-08-07T03:16:07;16.60;75.40
81210;DHT22;70685;52.496;13.420;2023-08-07T03:18:33;16.60;75.40
81210;DHT22;70685;52.496;13.420;2023-08-07T03:20:59;16.50;75.60
81210;DHT22;70685;52.496;13.420;2023-08-07T03:23:26;16.50;75.70
81210;DHT22;70685;52.496;13.420;2023-08-07T03:26:02;16.50;75.80
81210;DHT22;70685;52.496;13.420;2023-08-07T03:28:31;16.60;75.80
81210;DHT22;70685;52.496;13.420;2023-08-07T03:31:03;16.60;75.80
81210;DHT22;70685;52.496;13.420;2023-08-07T03:33:31;16.50;76.10
81210;DHT22;70685;52.496;13.420;2023-08-07T03:35:57;16.30;76.40
81210;DHT22;70685;52.496;13.420;2023-08-07T03:38:25;16.30;76.60
81210;DHT22;70685;52.496;13.420;2023-08-07T03:40:51;16.30;76.80
81210;DHT22;70685;52.496;13.420;2023-08-07T03:43:16;16.30;77.00
81210;DHT22;70685;52.496;13.420;2023-08-07T03:45:42;16.30;77.30
81210;DHT22;70685;52.496;13.420;2023-08-07T03:48:08;16.30;77.20
81210;DHT22;70685;52.496;13.420;2023-08-07T03:50:34;16.40;76.70
81210;DHT22;70685;52.496;13.420;2023-08-07T03:53:02;16.40;76.40
81210;DHT22;70685;52.496;13.420;2023-08-07T03:55:28;16.40;76.50
81210;DHT22;70685;52.496;13.420;2023-08-07T03:57:58;16.50;76.20
81210;DHT22;70685;52.496;13.420;2023-08-07T04:00:26;16.50;76.10
81210;DHT22;70685;52.496;13.420;2023-08-07T04:02:52;16.40;76.20
81210;DHT22;70685;52.496;13.420;2023-08-07T04:05:20;16.40;76.20
81210;DHT22;70685;52.496;13.420;2023-08-07T04:07:48;16.40;76.40
81210;DHT22;70685;52.496;13.420;2023-08-07T04:10:13;16.50;76.20
81210;DHT22;70685;52.496;13.420;2023-08-07T04:12:39;16.50;75.90
81210;DHT22;70685;52.496;13.420;2023-08-07T04:15:05;16.50;76.00
81210;DHT22;70685;52.496;13.420;2023-08-07T04:17:32;16.50;75.80
81210;DHT22;70685;52.496;13.420;2023-08-07T04:20:00;16.50;75.60
81210;DHT22;70685;52.496;13.420;2023-08-07T04:22:29;16.60;75.20
81210;DHT22;70685;52.496;13.420;2023-08-07T04:24:56;16.70;74.80
81210;DHT22;70685;52.496;13.420;2023-08-07T04:27:30;16.80;74.70
81210;DHT22;70685;52.496;13.420;2023-08-07T04:29:56;16.80;74.20
81210;DHT22;70685;52.496;13.420;2023-08-07T04:32:24;16.90;74.00
81210;DHT22;70685;52.496;13.420;2023-08-07T04:34:51;16.90;73.80
81210;DHT22;70685;52.496;13.420;2023-08-07T04:37:17;16.90;73.60
81210;DHT22;70685;52.496;13.420;2023-08-07T04:39:47;16.90;73.30
81210;DHT22;70685;52.496;13.420;2023-08-07T04:42:15;16.90;73.40
81210;DHT22;70685;52.496;13.420;2023-08-07T04:44:43;17.00;73.10
81210;DHT22;70685;52.496;13.420;2023-08-07T04:47:10;17.00;72.70
81210;DHT22;70685;52.496;13.420;2023-08-07T04:49:38;17.10;72.30
81210;DHT22;70685;52.496;13.420;2023-08-07T04:52:04;17.10;73.30
81210;DHT22;70685;52.496;13.420;2023-08-07T04:54:30;17.10;72.60
81210;DHT22;70685;52.496;13.420;2023-08-07T04:57:00;17.10;72.30
81210;DHT22;70685;52.496;13.420;2023-08-07T04:59:30;17.20;72.10
81210;DHT22;70685;52.496;13.420;2023-08-07T05:01:57;17.20;72.00
81210;DHT22;70685;52.496;13.420;2023-08-07T05:04:25;17.30;71.40
81210;DHT22;70685;52.496;13.420;2023-08-07T05:06:51;17.40;70.80
81210;DHT22;70685;52.496;13.420;2023-08-07T05:09:16;17.50;70.80
81210;DHT22;70685;52.496;13.420;2023-08-07T05:11:42;17.50;70.60
81210;DHT22;70685;52.496;13.420;2023-08-07T05:14:08;17.50;70.10
81210;DHT22;70685;52.496;13.420;2023-08-07T05:16:33;17.40;70.10
81210;DHT22;70685;52.496;13.420;2023-08-07T05:19:05;17.40;70.80
81210;DHT22;70685;52.496;13.420;2023-08-07T05:21:31;17.40;70.30
81210;DHT22;70685;52.496;13.420;2023-08-07T05:23:56;17.30;70.50
81210;DHT22;70685;52.496;13.420;2023-08-07T05:26:22;17.30;70.60
81210;DHT22;70685;52.496;13.420;2023-08-07T05:32:17;17.20;70.30
81210;DHT22;70685;52.496;13.420;2023-08-07T05:41:34;17.20;70.40
81210;DHT22;70685;52.496;13.420;2023-08-07T05:44:19;17.20;70.30
81210;DHT22;70685;52.496;13.420;2023-08-07T05:46:45;17.20;69.90
81210;DHT22;70685;52.496;13.420;2023-08-07T05:49:10;17.30;69.40
81210;DHT22;70685;52.496;13.420;2023-08-07T05:51:36;17.50;69.20
81210;DHT22;70685;52.496;13.420;2023-08-07T05:54:04;17.60;69.00
81210;DHT22;70685;52.496;13.420;2023-08-07T05:56:41;17.80;68.30
81210;DHT22;70685;52.496;13.420;2023-08-07T05:59:07;18.10;67.80
81210;DHT22;70685;52.496;13.420;2023-08-07T06:01:32;18.30;66.20
81210;DHT22;70685;52.496;13.420;2023-08-07T06:04:04;18.50;65.80
81210;DHT22;70685;52.496;13.420;2023-08-07T06:06:32;18.80;65.20
81210;DHT22;70685;52.496;13.420;2023-08-07T06:09:00;19.10;64.80
81210;DHT22;70685;52.496;13.420;2023-08-07T06:11:29;19.60;62.70
81210;DHT22;70685;52.496;13.420;2023-08-07T06:14:16;20.00;61.50
81210;DHT22;70685;52.496;13.420;2023-08-07T06:16:47;20.50;60.30
81210;DHT22;70685;52.496;13.420;2023-08-07T06:19:19;20.70;59.10
81210;DHT22;70685;52.496;13.420;2023-08-07T06:21:45;20.70;58.90
81210;DHT22;70685;52.496;13.420;2023-08-07T06:24:19;20.60;59.20
81210;DHT22;70685;52.496;13.420;2023-08-07T06:26:45;20.40;59.80
81210;DHT22;70685;52.496;13.420;2023-08-07T06:29:14;20.10;60.10
81210;DHT22;70685;52.496;13.420;2023-08-07T06:31:42;20.00;60.70
81210;DHT22;70685;52.496;13.420;2023-08-07T06:34:09;20.00;60.70
81210;DHT22;70685;52.496;13.420;2023-08-07T06:46:06;20.40;59.20
81210;DHT22;70685;52.496;13.420;2023-08-07T06:48:32;20.40;58.30
81210;DHT22;70685;52.496;13.420;2023-08-07T06:51:14;20.40;58.50
81210;DHT22;70685;52.496;13.420;2023-08-07T06:53:44;20.60;58.30
81210;DHT22;70685;52.496;13.420;2023-08-07T06:56:12;20.70;57.50
81210;DHT22;70685;52.496;13.420;2023-08-07T06:58:37;20.70;57.40
81210;DHT22;70685;52.496;13.420;2023-08-07T07:01:06;20.70;56.90
81210;DHT22;70685;52.496;13.420;2023-08-07T07:03:58;20.80;56.80
81210;DHT22;70685;52.496;13.420;2023-08-07T07:06:33;20.90;56.00
81210;DHT22;70685;52.496;13.420;2023-08-07T07:08:59;21.10;55.30
81210;DHT22;70685;52.496;13.420;2023-08-07T07:11:25;21.30;54.80
81210;DHT22;70685;52.496;13.420;2023-08-07T07:13:52;21.30;54.70
81210;DHT22;70685;52.496;13.420;2023-08-07T07:16:20;21.40;54.70
81210;DHT22;70685;52.496;13.420;2023-08-07T07:19:18;21.50;54.00
81210;DHT22;70685;52.496;13.420;2023-08-07T07:21:48;21.60;53.90
81210;DHT22;70685;52.496;13.420;2023-08-07T07:28:12;21.50;53.50
81210;DHT22;70685;52.496;13.420;2023-08-07T07:34:01;21.70;53.30
81210;DHT22;70685;52.496;13.420;2023-08-07T07:37:02;21.70;52.80
81210;DHT22;70685;52.496;13.420;2023-08-07T07:39:31;21.50;52.90
81210;DHT22;70685;52.496;13.420;2023-08-07T07:42:26;21.30;53.60
81210;DHT22;70685;52.496;13.420;2023-08-07T07:45:39;21.40;53.30
81210;DHT22;70685;52.496;13.420;2023-08-07T07:48:05;21.60;53.50
81210;DHT22;70685;52.496;13.420;2023-08-07T07:50:33;21.60;53.00
81210;DHT22;70685;52.496;13.420;2023-08-07T07:53:06;21.60;53.00
81210;DHT22;70685;52.496;13.420;2023-08-07T07:55:36;21.80;52.40
81210;DHT22;70685;52.496;13.420;2023-08-07T07:58:12;21.90;51.90
81210;DHT22;70685;52.496;13.420;2023-08-07T08:00:38;22.10;51.80
81210;DHT22;70685;52.496;13.420;2023-08-07T08:03:06;22.70;50.70
81210;DHT22;70685;52.496;13.420;2023-08-07T08:05:35;22.70;49.70
81210;DHT22;70685;52.496;13.420;2023-08-07T08:08:01;22.90;49.60
81210;DHT22;70685;52.496;13.420;2023-08-07T08:13:24;22.70;49.20
81210;DHT22;70685;52.496;13.420;2023-08-07T08:15:53;22.20;51.00
81210;DHT22;70685;52.496;13.420;2023-08-07T08:18:24;22.10;51.50
81210;DHT22;70685;52.496;13.420;2023-08-07T08:20:55;22.30;51.60
81210;DHT22;70685;52.496;13.420;2023-08-07T08:23:29;22.10;51.10
81210;DHT22;70685;52.496;13.420;2023-08-07T08:26:01;21.50;53.40
81210;DHT22;70685;52.496;13.420;2023-08-07T08:28:38;21.40;53.90
81210;DHT22;70685;52.496;13.420;2023-08-07T08:31:03;21.50;54.40
81210;DHT22;70685;52.496;13.420;2023-08-07T08:33:29;21.60;54.40
81210;DHT22;70685;52.496;13.420;2023-08-07T08:35:57;21.40;54.60
81210;DHT22;70685;52.496;13.420;2023-08-07T08:38:25;21.30;55.20
81210;DHT22;70685;52.496;13.420;2023-08-07T08:40:56;21.00;56.00
81210;DHT22;70685;52.496;13.420;2023-08-07T08:43:23;20.80;56.60
81210;DHT22;70685;52.496;13.420;2023-08-07T08:45:51;20.60;56.80
81210;DHT22;70685;52.496;13.420;2023-08-07T08:48:19;20.80;56.70
81210;DHT22;70685;52.496;13.420;2023-08-07T08:50:50;20.90;56.40
81210;DHT22;70685;52.496;13.420;2023-08-07T08:53:16;20.90;56.10
81210;DHT22;70685;52.496;13.420;2023-08-07T08:55:43;20.90;55.80
81210;DHT22;70685;52.496;13.420;2023-08-07T08:58:16;21.10;55.70
81210;DHT22;70685;52.496;13.420;2023-08-07T09:00:43;21.50;54.70
81210;DHT22;70685;52.496;13.420;2023-08-07T09:03:12;22.10;52.50
81210;DHT22;70685;52.496;13.420;2023-08-07T09:05:38;22.40;51.60
81210;DHT22;70685;52.496;13.420;2023-08-07T09:08:05;22.50;50.20
81210;DHT22;70685;52.496;13.420;2023-08-07T09:10:32;22.60;50.10
81210;DHT22;70685;52.496;13.420;2023-08-07T09:13:03;22.70;49.80
81210;DHT22;70685;52.496;13.420;2023-08-07T09:15:32;22.80;49.10
81210;DHT22;70685;52.496;13.420;2023-08-07T09:17:58;22.90;48.60
81210;DHT22;70685;52.496;13.420;2023-08-07T09:20:30;23.20;49.20
81210;DHT22;70685;52.496;13.420;2023-08-07T09:22:56;22.70;50.60
81210;DHT22;70685;52.496;13.420;2023-08-07T09:25:31;22.00;53.70
81210;DHT22;70685;52.496;13.420;2023-08-07T09:28:06;21.50;54.20
81210;DHT22;70685;52.496;13.420;2023-08-07T09:30:36;21.20;55.90
81210;DHT22;70685;52.496;13.420;2023-08-07T09:33:09;21.20;56.50
81210;DHT22;70685;52.496;13.420;2023-08-07T09:35:35;21.30;56.40
81210;DHT22;70685;52.496;13.420;2023-08-07T09:38:03;21.70;55.70
81210;DHT22;70685;52.496;13.420;2023-08-07T09:40:29;22.20;53.80
81210;DHT22;70685;52.496;13.420;2023-08-07T09:42:56;22.80;52.50
81210;DHT22;70685;52.496;13.420;2023-08-07T09:45:22;23.10;51.00
81210;DHT22;70685;52.496;13.420;2023-08-07T09:47:58;23.20;51.00
81210;DHT22;70685;52.496;13.420;2023-08-07T09:50:26;23.10;50.90
81210;DHT22;70685;52.496;13.420;2023-08-07T09:52:53;22.90;50.90
81210;DHT22;70685;52.496;13.420;2023-08-07T09:55:23;22.90;51.30
81210;DHT22;70685;52.496;13.420;2023-08-07T09:58:12;23.10;50.20
81210;DHT22;70685;52.496;13.420;2023-08-07T10:00:40;23.10;49.80
81210;DHT22;70685;52.496;13.420;2023-08-07T10:03:06;23.00;50.00
81210;DHT22;70685;52.496;13.420;2023-08-07T10:05:32;23.10;51.10
81210;DHT22;70685;52.496;13.420;2023-08-07T10:07:58;23.20;49.80
81210;DHT22;70685;52.496;13.420;2023-08-07T10:10:29;23.10;49.80
81210;DHT22;70685;52.496;13.420;2023-08-07T10:13:00;22.90;49.40
81210;DHT22;70685;52.496;13.420;2023-08-07T10:15:27;22.70;50.00
81210;DHT22;70685;52.496;13.420;2023-08-07T10:17:52;22.70;49.90
81210;DHT22;70685;52.496;13.420;2023-08-07T10:20:28;22.70;49.20
81210;DHT22;70685;52.496;13.420;2023-08-07T10:23:08;23.00;49.20
81210;DHT22;70685;52.496;13.420;2023-08-07T10:25:43;22.80;48.10
81210;DHT22;70685;52.496;13.420;2023-08-07T10:28:17;22.50;49.40
81210;DHT22;70685;52.496;13.420;2023-08-07T10:30:49;22.20;50.20
81210;DHT22;70685;52.496;13.420;2023-08-07T10:33:16;22.20;50.60
81210;DHT22;70685;52.496;13.420;2023-08-07T10:35:51;22.10;50.20
81210;DHT22;70685;52.496;13.420;2023-08-07T10:38:20;22.20;50.50
81210;DHT22;70685;52.496;13.420;2023-08-07T10:41:07;22.40;49.70
81210;DHT22;70685;52.496;13.420;2023-08-07T10:43:43;22.50;49.20
81210;DHT22;70685;52.496;13.420;2023-08-07T10:46:20;22.50;48.70
81210;DHT22;70685;52.496;13.420;2023-08-07T10:48:54;22.70;48.10
81210;DHT22;70685;52.496;13.420;2023-08-07T10:51:30;22.60;48.20
81210;DHT22;70685;52.496;13.420;2023-08-07T10:53:56;22.70;48.50
81210;DHT22;70685;52.496;13.420;2023-08-07T10:56:37;22.80;48.40
81210;DHT22;70685;52.496;13.420;2023-08-07T10:59:30;22.60;49.00
81210;DHT22;70685;52.496;13.420;2023-08-07T11:01:56;22.40;48.90
81210;DHT22;70685;52.496;13.420;2023-08-07T11:04:25;22.50;49.00
81210;DHT22;70685;52.496;13.420;2023-08-07T11:06:54;22.60;48.50
81210;DHT22;70685;52.496;13.420;2023-08-07T11:09:25;22.70;48.00
81210;DHT22;70685;52.496;13.420;2023-08-07T11:11:52;22.70;48.00
81210;DHT22;70685;52.496;13.420;2023-08-07T11:14:19;22.30;50.40
81210;DHT22;70685;52.496;13.420;2023-08-07T11:16:46;21.60;54.80
81210;DHT22;70685;52.496;13.420;2023-08-07T11:19:16;20.70;57.90
81210;DHT22;70685;52.496;13.420;2023-08-07T11:21:43;20.00;60.00
81210;DHT22;70685;52.496;13.420;2023-08-07T11:24:13;19.70;61.10
81210;DHT22;70685;52.496;13.420;2023-08-07T11:26:39;19.70;61.30
81210;DHT22;70685;52.496;13.420;2023-08-07T11:29:05;19.80;61.10
81210;DHT22;70685;52.496;13.420;2023-08-07T11:31:30;19.90;60.70
81210;DHT22;70685;52.496;13.420;2023-08-07T11:34:00;19.90;61.10
81210;DHT22;70685;52.496;13.420;2023-08-07T11:36:28;19.80;62.50
81210;DHT22;70685;52.496;13.420;2023-08-07T11:38:56;20.00;61.80
81210;DHT22;70685;52.496;13.420;2023-08-07T11:41:22;20.20;61.30
81210;DHT22;70685;52.496;13.420;2023-08-07T11:43:48;20.40;60.70
81210;DHT22;70685;52.496;13.420;2023-08-07T11:46:19;20.40;60.60
81210;DHT22;70685;52.496;13.420;2023-08-07T11:48:47;20.20;60.50
81210;DHT22;70685;52.496;13.420;2023-08-07T11:51:13;20.00;62.00
81210;DHT22;70685;52.496;13.420;2023-08-07T11:53:40;20.00;62.50
81210;DHT22;70685;52.496;13.420;2023-08-07T11:56:12;20.20;61.80
81210;DHT22;70685;52.496;13.420;2023-08-07T11:58:46;20.60;60.20
81210;DHT22;70685;52.496;13.420;2023-08-07T12:01:18;20.90;59.70
81210;DHT22;70685;52.496;13.420;2023-08-07T12:03:57;21.30;58.30
81210;DHT22;70685;52.496;13.420;2023-08-07T12:06:34;21.80;56.70
81210;DHT22;70685;52.496;13.420;2023-08-07T12:09:01;22.20;55.70
81210;DHT22;70685;52.496;13.420;2023-08-07T12:11:30;22.30;53.50
81210;DHT22;70685;52.496;13.420;2023-08-07T12:14:02;22.30;53.70
81210;DHT22;70685;52.496;13.420;2023-08-07T12:16:32;22.30;53.60
81210;DHT22;70685;52.496;13.420;2023-08-07T12:18:58;22.30;53.00
81210;DHT22;70685;52.496;13.420;2023-08-07T12:21:24;22.20;53.30
81210;DHT22;70685;52.496;13.420;2023-08-07T12:23:54;22.10;53.50
81210;DHT22;70685;52.496;13.420;2023-08-07T12:26:20;21.70;55.00
81210;DHT22;70685;52.496;13.420;2023-08-07T12:28:45;21.60;55.00
81210;DHT22;70685;52.496;13.420;2023-08-07T12:31:11;21.50;55.60
81210;DHT22;70685;52.496;13.420;2023-08-07T12:33:39;21.60;55.80
81210;DHT22;70685;52.496;13.420;2023-08-07T12:36:05;21.60;55.20
81210;DHT22;70685;52.496;13.420;2023-08-07T12:38:31;21.60;55.70
81210;DHT22;70685;52.496;13.420;2023-08-07T12:41:04;21.60;55.60
81210;DHT22;70685;52.496;13.420;2023-08-07T12:43:30;21.60;55.00
81210;DHT22;70685;52.496;13.420;2023-08-07T12:45:56;21.40;55.10
81210;DHT22;70685;52.496;13.420;2023-08-07T12:48:21;21.20;56.10
81210;DHT22;70685;52.496;13.420;2023-08-07T12:50:49;21.10;57.20
81210;DHT22;70685;52.496;13.420;2023-08-07T12:53:17;21.20;56.90
81210;DHT22;70685;52.496;13.420;2023-08-07T12:55:43;21.30;56.10
81210;DHT22;70685;52.496;13.420;2023-08-07T12:58:20;21.20;56.80
81210;DHT22;70685;52.496;13.420;2023-08-07T13:00:53;21.10;56.50
81210;DHT22;70685;52.496;13.420;2023-08-07T13:03:19;20.90;56.20
81210;DHT22;70685;52.496;13.420;2023-08-07T13:05:45;20.70;56.70
81210;DHT22;70685;52.496;13.420;2023-08-07T13:08:11;20.60;57.20
81210;DHT22;70685;52.496;13.420;2023-08-07T13:10:36;20.60;57.20
81210;DHT22;70685;52.496;13.420;2023-08-07T13:13:02;21.00;55.30
81210;DHT22;70685;52.496;13.420;2023-08-07T13:15:30;21.60;52.50
81210;DHT22;70685;52.496;13.420;2023-08-07T13:17:56;22.40;49.70
81210;DHT22;70685;52.496;13.420;2023-08-07T13:20:21;23.30;47.60
81210;DHT22;70685;52.496;13.420;2023-08-07T13:22:49;24.00;45.80
81210;DHT22;70685;52.496;13.420;2023-08-07T13:25:15;24.50;45.00
81210;DHT22;70685;52.496;13.420;2023-08-07T13:27:43;24.60;45.40
81210;DHT22;70685;52.496;13.420;2023-08-07T13:30:09;24.50;46.00
81210;DHT22;70685;52.496;13.420;2023-08-07T13:32:35;24.10;43.00
81210;DHT22;70685;52.496;13.420;2023-08-07T13:35:01;23.80;43.20
81210;DHT22;70685;52.496;13.420;2023-08-07T13:37:28;23.70;43.30
81210;DHT22;70685;52.496;13.420;2023-08-07T13:39:54;23.50;41.50
81210;DHT22;70685;52.496;13.420;2023-08-07T13:42:23;23.30;42.00
81210;DHT22;70685;52.496;13.420;2023-08-07T13:44:50;23.30;41.60
81210;DHT22;70685;52.496;13.420;2023-08-07T13:47:18;23.40;42.70
81210;DHT22;70685;52.496;13.420;2023-08-07T13:49:47;23.30;41.80
81210;DHT22;70685;52.496;13.420;2023-08-07T13:52:15;23.10;41.30
81210;DHT22;70685;52.496;13.420;2023-08-07T13:54:41;22.90;41.60
81210;DHT22;70685;52.496;13.420;2023-08-07T13:57:09;22.70;41.70
81210;DHT22;70685;52.496;13.420;2023-08-07T13:59:34;22.60;41.80
81210;DHT22;70685;52.496;13.420;2023-08-07T14:02:00;22.60;42.20
81210;DHT22;70685;52.496;13.420;2023-08-07T14:04:25;22.60;42.30
81210;DHT22;70685;52.496;13.420;2023-08-07T14:06:52;22.60;42.30
81210;DHT22;70685;52.496;13.420;2023-08-07T14:09:17;22.50;42.40
81210;DHT22;70685;52.496;13.420;2023-08-07T14:11:48;22.70;42.50
81210;DHT22;70685;52.496;13.420;2023-08-07T14:14:16;22.90;42.50
81210;DHT22;70685;52.496;13.420;2023-08-07T14:16:42;23.00;41.40
81210;DHT22;70685;52.496;13.420;2023-08-07T14:19:08;23.10;41.30
81210;DHT22;70685;52.496;13.420;2023-08-07T14:21:36;23.10;41.50
81210;DHT22;70685;52.496;13.420;2023-08-07T14:24:02;22.90;41.10
81210;DHT22;70685;52.496;13.420;2023-08-07T14:26:32;22.80;41.80
81210;DHT22;70685;52.496;13.420;2023-08-07T14:29:00;22.80;41.90
81210;DHT22;70685;52.496;13.420;2023-08-07T14:31:26;22.70;42.20
81210;DHT22;70685;52.496;13.420;2023-08-07T14:33:51;22.70;42.20
81210;DHT22;70685;52.496;13.420;2023-08-07T14:36:17;22.30;42.10
81210;DHT22;70685;52.496;13.420;2023-08-07T14:38:42;22.10;42.60
81210;DHT22;70685;52.496;13.420;2023-08-07T14:41:10;22.00;42.80
81210;DHT22;70685;52.496;13.420;2023-08-07T14:43:36;21.90;42.40
81210;DHT22;70685;52.496;13.420;2023-08-07T14:46:04;21.80;42.70
81210;DHT22;70685;52.496;13.420;2023-08-07T14:48:32;21.70;42.60
81210;DHT22;70685;52.496;13.420;2023-08-07T14:50:58;21.60;42.80
81210;DHT22;70685;52.496;13.420;2023-08-07T14:53:30;21.60;42.80
81210;DHT22;70685;52.496;13.420;2023-08-07T14:55:56;21.60;43.30
81210;DHT22;70685;52.496;13.420;2023-08-07T14:58:22;21.70;42.70
81210;DHT22;70685;52.496;13.420;2023-08-07T15:00:53;21.60;43.20
81210;DHT22;70685;52.496;13.420;2023-08-07T15:03:19;21.50;43.50
81210;DHT22;70685;52.496;13.420;2023-08-07T15:05:45;21.30;44.30
81210;DHT22;70685;52.496;13.420;2023-08-07T15:08:10;21.20;44.50
81210;DHT22;70685;52.496;13.420;2023-08-07T15:10:40;21.30;44.10
81210;DHT22;70685;52.496;13.420;2023-08-07T15:13:05;21.30;43.70
81210;DHT22;70685;52.496;13.420;2023-08-07T15:15:33;21.40;43.30
81210;DHT22;70685;52.496;13.420;2023-08-07T15:17:59;21.50;43.10
81210;DHT22;70685;52.496;13.420;2023-08-07T15:20:28;21.50;43.20
81210;DHT22;70685;52.496;13.420;2023-08-07T15:22:54;21.60;43.30
81210;DHT22;70685;52.496;13.420;2023-08-07T15:25:20;21.50;43.60
81210;DHT22;70685;52.496;13.420;2023-08-07T15:27:50;21.60;43.90
81210;DHT22;70685;52.496;13.420;2023-08-07T15:30:16;21.60;43.60
81210;DHT22;70685;52.496;13.420;2023-08-07T15:32:42;21.60;43.40
81210;DHT22;70685;52.496;13.420;2023-08-07T15:35:10;21.60;43.20
81210;DHT22;70685;52.496;13.420;2023-08-07T15:37:36;21.50;44.00
81210;DHT22;70685;52.496;13.420;2023-08-07T15:40:02;21.50;43.50
81210;DHT22;70685;52.496;13.420;2023-08-07T15:42:28;21.90;43.10
81210;DHT22;70685;52.496;13.420;2023-08-07T15:44:53;22.10;42.80
81210;DHT22;70685;52.496;13.420;2023-08-07T15:47:21;22.20;42.60
81210;DHT22;70685;52.496;13.420;2023-08-07T15:49:47;22.20;42.50
81210;DHT22;70685;52.496;13.420;2023-08-07T15:52:16;22.10;42.60
81210;DHT22;70685;52.496;13.420;2023-08-07T15:54:46;22.10;43.00
81210;DHT22;70685;52.496;13.420;2023-08-07T15:57:16;21.90;43.20
81210;DHT22;70685;52.496;13.420;2023-08-07T15:59:41;21.60;43.00
81210;DHT22;70685;52.496;13.420;2023-08-07T16:02:07;21.40;43.50
81210;DHT22;70685;52.496;13.420;2023-08-07T16:04:36;21.30;44.00